createdAt,value
2023-03-18T00:00:08.668Z,1.50
2023-03-18T00:01:08.751Z,2.00
2023-03-18T00:02:08.654Z,1.90
2023-03-18T00:03:08.660Z,1.40
2023-03-18T00:04:08.805Z,1.50
2023-03-18T00:05:08.838Z,1.40
2023-03-18T00:06:08.586Z,1.60
2023-03-18T00:07:08.692Z,1.80
2023-03-18T00:08:08.574Z,1.70
2023-03-18T00:09:08.647Z,1.90
2023-03-18T00:10:08.532Z,1.60
2023-03-18T00:11:08.608Z,1.60
2023-03-18T00:12:08.533Z,1.80
2023-03-18T00:13:08.615Z,1.60
2023-03-18T00:14:08.538Z,1.80
2023-03-18T00:15:08.684Z,1.90
2023-03-18T00:16:08.544Z,2.20
2023-03-18T00:17:08.564Z,1.70
2023-03-18T00:18:08.435Z,1.90
2023-03-18T00:19:08.517Z,1.90
2023-03-18T00:20:08.406Z,1.50
2023-03-18T00:21:08.585Z,1.70
2023-03-18T00:22:08.400Z,1.70
2023-03-18T00:23:08.661Z,1.70
2023-03-18T00:24:08.387Z,1.70
2023-03-18T00:25:08.446Z,1.50
2023-03-18T00:26:08.373Z,1.50
2023-03-18T00:27:08.436Z,1.60
2023-03-18T00:28:08.325Z,2.00
2023-03-18T00:29:08.328Z,2.00
2023-03-18T00:30:08.345Z,1.80
2023-03-18T00:31:08.621Z,1.80
2023-03-18T00:32:08.287Z,2.10
2023-03-18T00:33:08.560Z,1.50
2023-03-18T00:34:08.252Z,2.00
2023-03-18T00:35:08.311Z,1.90
2023-03-18T00:36:08.257Z,1.80
2023-03-18T00:37:08.357Z,1.80
2023-03-18T00:38:08.177Z,2.00
2023-03-18T00:39:08.334Z,1.70
2023-03-18T00:40:08.209Z,1.70
2023-03-18T00:41:08.377Z,1.70
2023-03-18T00:42:08.215Z,2.30
2023-03-18T00:43:08.379Z,1.70
2023-03-18T00:44:08.074Z,1.80
2023-03-18T00:45:08.177Z,1.90
2023-03-18T00:46:08.064Z,1.60
2023-03-18T00:47:08.274Z,1.70
2023-03-18T00:48:08.068Z,1.60
2023-03-18T00:49:08.285Z,1.50
2023-03-18T00:50:08.015Z,2.10
2023-03-18T00:51:08.126Z,1.70
2023-03-18T00:52:08.008Z,1.80
2023-03-18T00:53:08.118Z,1.60
2023-03-18T00:54:08.012Z,1.80
2023-03-18T00:55:08.011Z,1.60
2023-03-18T00:56:07.947Z,1.70
2023-03-18T00:57:08.088Z,1.80
2023-03-18T00:58:07.923Z,1.90
2023-03-18T00:59:08.094Z,1.80
2023-03-18T01:00:07.892Z,1.80
2023-03-18T01:01:07.996Z,1.50
2023-03-18T01:02:07.966Z,1.50
2023-03-18T01:03:08.052Z,1.80
2023-03-18T01:04:07.893Z,1.50
2023-03-18T01:05:07.900Z,1.50
2023-03-18T01:06:07.824Z,1.40
2023-03-18T01:07:07.901Z,1.40
2023-03-18T01:08:07.787Z,1.30
2023-03-18T01:09:08.096Z,1.10
2023-03-18T01:10:07.816Z,1.30
2023-03-18T01:11:07.763Z,1.00
2023-03-18T01:12:07.820Z,1.40
2023-03-18T01:13:07.758Z,1.20
2023-03-18T01:14:07.875Z,1.40
2023-03-18T01:15:07.792Z,1.30
2023-03-18T01:16:07.709Z,1.40
2023-03-18T01:17:07.768Z,1.40
2023-03-18T01:18:07.648Z,1.20
2023-03-18T01:19:07.780Z,1.10
2023-03-18T01:20:07.665Z,1.20
2023-03-18T01:21:07.745Z,1.10
2023-03-18T01:22:07.609Z,1.20
2023-03-18T01:23:07.866Z,1.30
2023-03-18T01:24:07.571Z,1.50
2023-03-18T01:25:07.674Z,1.20
2023-03-18T01:26:07.551Z,1.20
2023-03-18T01:27:07.709Z,1.50
2023-03-18T01:28:07.524Z,1.20
2023-03-18T01:29:07.752Z,1.10
2023-03-18T01:30:07.552Z,1.40
2023-03-18T01:31:07.783Z,1.10
2023-03-18T01:32:07.544Z,1.40
2023-03-18T01:33:07.664Z,1.20
2023-03-18T01:34:07.461Z,1.40
2023-03-18T01:35:07.580Z,1.50
2023-03-18T01:36:07.467Z,1.60
2023-03-18T01:37:07.584Z,1.30
2023-03-18T01:38:07.409Z,1.70
2023-03-18T01:39:07.515Z,1.70
2023-03-18T01:40:07.379Z,1.50
2023-03-18T01:41:07.489Z,1.30
2023-03-18T01:42:07.342Z,1.30
2023-03-18T01:43:07.453Z,1.30
2023-03-18T01:44:07.322Z,1.50
2023-03-18T01:45:07.449Z,1.50
2023-03-18T01:46:07.383Z,1.50
2023-03-18T01:47:07.473Z,1.20
2023-03-18T01:48:07.260Z,1.10
2023-03-18T01:49:07.468Z,1.10
2023-03-18T01:50:07.238Z,1.10
2023-03-18T01:51:07.484Z,0.90
2023-03-18T01:52:07.263Z,1.00
2023-03-18T01:53:07.358Z,0.70
2023-03-18T01:54:07.213Z,1.00
2023-03-18T01:55:07.416Z,1.10
2023-03-18T01:56:07.165Z,0.80
2023-03-18T01:57:07.223Z,0.80
2023-03-18T01:58:07.137Z,1.00
2023-03-18T01:59:07.294Z,0.80
2023-03-18T02:00:07.113Z,1.20
2023-03-18T02:01:07.273Z,1.20
2023-03-18T02:02:07.252Z,1.30
2023-03-18T02:03:07.101Z,0.90
2023-03-18T02:04:07.214Z,1.10
2023-03-18T02:05:07.106Z,1.20
2023-03-18T02:06:07.154Z,1.50
2023-03-18T02:07:07.193Z,1.60
2023-03-18T02:08:07.020Z,1.50
2023-03-18T02:09:07.268Z,1.40
2023-03-18T02:10:12.206Z,1.50
2023-03-18T02:11:06.984Z,1.50
2023-03-18T02:12:07.120Z,1.70
2023-03-18T02:13:06.951Z,1.50
2023-03-18T02:14:07.170Z,1.50
2023-03-18T02:15:06.942Z,1.60
2023-03-18T02:16:07.061Z,1.80
2023-03-18T02:17:06.906Z,1.30
2023-03-18T02:18:06.980Z,1.50
2023-03-18T02:19:06.882Z,1.50
2023-03-18T02:20:07.044Z,1.70
2023-03-18T02:21:06.867Z,1.50
2023-03-18T02:22:06.992Z,1.40
2023-03-18T02:23:06.860Z,1.30
2023-03-18T02:24:07.079Z,1.00
2023-03-18T02:25:06.798Z,1.10
2023-03-18T02:26:07.025Z,1.30
2023-03-18T02:27:06.801Z,1.20
2023-03-18T02:28:06.941Z,1.10
2023-03-18T02:29:06.737Z,1.10
2023-03-18T02:30:06.838Z,1.40
2023-03-18T02:31:06.746Z,1.20
2023-03-18T02:32:06.902Z,1.20
2023-03-18T02:33:06.939Z,1.30
2023-03-18T02:34:06.715Z,1.20
2023-03-18T02:35:06.817Z,1.50
2023-03-18T02:36:06.685Z,1.50
2023-03-18T02:37:06.827Z,1.70
2023-03-18T02:38:06.659Z,2.00
2023-03-18T02:39:06.706Z,1.50
2023-03-18T02:40:06.627Z,1.80
2023-03-18T02:41:06.857Z,1.40
2023-03-18T02:42:06.608Z,1.30
2023-03-18T02:43:06.719Z,1.50
2023-03-18T02:44:06.572Z,1.70
2023-03-18T02:45:06.616Z,1.30
2023-03-18T02:46:06.649Z,1.10
2023-03-18T02:47:06.690Z,1.50
2023-03-18T02:48:06.523Z,1.60
2023-03-18T02:49:06.656Z,1.80
2023-03-18T02:50:06.555Z,1.60
2023-03-18T02:51:06.618Z,1.80
2023-03-18T02:52:06.479Z,1.60
2023-03-18T02:53:06.670Z,2.00
2023-03-18T02:54:06.504Z,1.40
2023-03-18T02:55:06.489Z,1.50
2023-03-18T02:56:06.426Z,1.40
2023-03-18T02:57:06.532Z,1.50
2023-03-18T02:58:06.414Z,1.30
2023-03-18T02:59:06.526Z,1.70
2023-03-18T03:00:06.405Z,1.50
2023-03-18T03:01:06.593Z,1.40
2023-03-18T03:02:06.415Z,1.80
2023-03-18T03:03:06.589Z,1.90
2023-03-18T03:04:06.470Z,1.90
2023-03-18T03:05:06.339Z,1.70
2023-03-18T03:06:06.387Z,1.80
2023-03-18T03:07:06.302Z,1.70
2023-03-18T03:08:06.413Z,1.40
2023-03-18T03:09:06.272Z,1.90
2023-03-18T03:10:06.311Z,1.70
2023-03-18T03:11:06.227Z,1.60
2023-03-18T03:12:06.433Z,1.70
2023-03-18T03:13:06.234Z,1.20
2023-03-18T03:14:06.438Z,1.50
2023-03-18T03:15:06.203Z,1.50
2023-03-18T03:16:06.310Z,1.70
2023-03-18T03:17:06.168Z,1.60
2023-03-18T03:18:06.250Z,1.60
2023-03-18T03:19:06.138Z,1.60
2023-03-18T03:20:06.350Z,1.60
2023-03-18T03:21:06.108Z,1.50
2023-03-18T03:22:06.185Z,1.40
2023-03-18T03:23:06.081Z,1.70
2023-03-18T03:24:06.293Z,1.30
2023-03-18T03:25:06.062Z,1.60
2023-03-18T03:26:06.173Z,1.40
2023-03-18T03:27:06.052Z,1.50
2023-03-18T03:28:06.126Z,1.30
2023-03-18T03:29:06.008Z,1.40
2023-03-18T03:30:06.129Z,1.50
2023-03-18T03:31:06.047Z,1.20
2023-03-18T03:32:06.156Z,1.30
2023-03-18T03:33:05.978Z,1.20
2023-03-18T03:34:06.132Z,1.10
2023-03-18T03:35:05.928Z,1.30
2023-03-18T03:36:06.093Z,1.30
2023-03-18T03:37:05.936Z,1.10
2023-03-18T03:38:12.208Z,1.40
2023-03-18T03:39:05.872Z,1.20
2023-03-18T03:40:06.074Z,1.00
2023-03-18T03:41:05.881Z,1.20
2023-03-18T03:42:06.012Z,1.20
2023-03-18T03:43:05.827Z,1.40
2023-03-18T03:44:06.058Z,1.00
2023-03-18T03:45:05.838Z,1.10
2023-03-18T03:46:05.974Z,1.30
2023-03-18T03:47:05.779Z,1.50
2023-03-18T03:48:05.872Z,1.20
2023-03-18T03:49:05.746Z,1.30
2023-03-18T03:50:05.939Z,1.40
2023-03-18T03:51:05.867Z,1.50
2023-03-18T03:52:05.738Z,1.30
2023-03-18T03:53:05.896Z,1.30
2023-03-18T03:54:05.722Z,1.10
2023-03-18T03:55:05.799Z,1.30
2023-03-18T03:56:05.864Z,1.60
2023-03-18T03:57:05.635Z,1.20
2023-03-18T03:58:05.858Z,1.30
2023-03-18T03:59:05.623Z,1.50
2023-03-18T04:00:05.842Z,1.30
2023-03-18T04:01:05.643Z,1.20
2023-03-18T04:02:05.701Z,1.00
2023-03-18T04:03:05.585Z,1.20
2023-03-18T04:04:05.728Z,1.30
2023-03-18T04:05:05.557Z,1.80
2023-03-18T04:06:05.691Z,1.20
2023-03-18T04:07:05.550Z,1.00
2023-03-18T04:08:05.689Z,1.20
2023-03-18T04:09:05.489Z,0.90
2023-03-18T04:10:05.609Z,1.00
2023-03-18T04:11:05.549Z,1.00
2023-03-18T04:12:05.731Z,1.10
2023-03-18T04:13:05.438Z,1.00
2023-03-18T04:14:05.567Z,1.10
2023-03-18T04:15:05.420Z,1.30
2023-03-18T04:16:05.635Z,1.00
2023-03-18T04:17:05.695Z,1.30
2023-03-18T04:18:05.403Z,1.10
2023-03-18T04:19:05.442Z,1.00
2023-03-18T04:20:05.371Z,1.20
2023-03-18T04:21:05.599Z,1.20
2023-03-18T04:22:05.556Z,1.10
2023-03-18T04:23:05.369Z,1.10
2023-03-18T04:24:05.391Z,1.20
2023-03-18T04:25:05.307Z,1.40
2023-03-18T04:26:05.450Z,1.20
2023-03-18T04:27:05.474Z,1.00
2023-03-18T04:28:05.314Z,0.70
2023-03-18T04:29:05.417Z,1.20
2023-03-18T04:30:05.262Z,1.00
2023-03-18T04:31:05.393Z,0.90
2023-03-18T04:32:05.233Z,1.00
2023-03-18T04:33:05.327Z,0.80
2023-03-18T04:34:05.211Z,0.70
2023-03-18T04:35:05.262Z,0.90
2023-03-18T04:36:05.230Z,0.80
2023-03-18T04:37:05.308Z,0.90
2023-03-18T04:38:05.147Z,0.90
2023-03-18T04:39:05.327Z,1.30
2023-03-18T04:40:05.129Z,1.00
2023-03-18T04:41:05.193Z,1.00
2023-03-18T04:42:05.108Z,0.90
2023-03-18T04:43:05.190Z,1.00
2023-03-18T04:44:05.105Z,1.30
2023-03-18T04:45:05.164Z,0.90
2023-03-18T04:46:05.031Z,1.00
2023-03-18T04:47:05.142Z,1.00
2023-03-18T04:48:05.178Z,1.10
2023-03-18T04:49:05.046Z,1.00
2023-03-18T04:50:05.236Z,0.80
2023-03-18T04:51:05.649Z,0.80
2023-03-18T04:52:05.160Z,0.70
2023-03-18T04:53:05.146Z,0.80
2023-03-18T04:54:04.936Z,0.70
2023-03-18T04:55:05.209Z,1.00
2023-03-18T04:56:04.938Z,0.70
2023-03-18T04:57:05.125Z,0.80
2023-03-18T04:58:04.870Z,0.90
2023-03-18T04:59:05.044Z,0.80
2023-03-18T05:00:04.855Z,0.80
2023-03-18T05:01:05.117Z,0.80
2023-03-18T05:02:04.866Z,0.90
2023-03-18T05:03:04.949Z,0.80
2023-03-18T05:04:04.846Z,0.80
2023-03-18T05:05:05.005Z,0.90
2023-03-18T05:06:04.791Z,0.90
2023-03-18T05:07:05.038Z,0.90
2023-03-18T05:08:04.751Z,1.30
2023-03-18T05:09:05.000Z,0.90
2023-03-18T05:10:04.720Z,1.00
2023-03-18T05:11:04.857Z,0.80
2023-03-18T05:12:04.741Z,0.90
2023-03-18T05:13:04.810Z,0.80
2023-03-18T05:14:04.681Z,0.80
2023-03-18T05:15:05.396Z,1.00
2023-03-18T05:16:04.727Z,0.90
2023-03-18T05:17:04.844Z,0.90
2023-03-18T05:18:04.625Z,0.60
2023-03-18T05:19:04.752Z,0.90
2023-03-18T05:20:04.601Z,0.80
2023-03-18T05:21:04.836Z,1.30
2023-03-18T05:22:04.602Z,1.00
2023-03-18T05:23:04.739Z,0.90
2023-03-18T05:24:04.550Z,1.00
2023-03-18T05:25:04.793Z,0.90
2023-03-18T05:26:04.521Z,1.10
2023-03-18T05:27:05.248Z,1.10
2023-03-18T05:28:04.502Z,1.10
2023-03-18T05:29:04.621Z,1.00
2023-03-18T05:30:04.476Z,1.30
2023-03-18T05:31:04.658Z,1.00
2023-03-18T05:32:04.491Z,1.10
2023-03-18T05:33:04.585Z,1.20
2023-03-18T05:34:04.465Z,1.20
2023-03-18T05:35:04.552Z,1.00
2023-03-18T05:36:04.443Z,1.00
2023-03-18T05:37:04.581Z,1.00
2023-03-18T05:38:04.399Z,1.00
2023-03-18T05:39:04.575Z,0.80
2023-03-18T05:40:04.609Z,1.20
2023-03-18T05:41:04.359Z,1.20
2023-03-18T05:42:04.388Z,0.80
2023-03-18T05:43:04.385Z,1.10
2023-03-18T05:44:04.399Z,1.10
2023-03-18T05:45:04.301Z,1.10
2023-03-18T05:46:04.473Z,1.10
2023-03-18T05:47:04.272Z,1.00
2023-03-18T05:48:04.490Z,0.80
2023-03-18T05:49:04.276Z,1.00
2023-03-18T05:50:04.453Z,1.00
2023-03-18T05:51:04.234Z,1.10
2023-03-18T05:52:04.365Z,1.00
2023-03-18T05:53:04.233Z,1.10
2023-03-18T05:54:04.317Z,1.10
2023-03-18T05:55:04.181Z,1.20
2023-03-18T05:56:04.290Z,1.50
2023-03-18T05:57:04.152Z,1.50
2023-03-18T05:58:04.360Z,1.40
2023-03-18T05:59:04.174Z,1.40
2023-03-18T06:00:04.330Z,1.10
2023-03-18T06:01:04.106Z,1.00
2023-03-18T06:02:04.290Z,1.40
2023-03-18T06:03:04.108Z,1.50
2023-03-18T06:04:04.251Z,1.40
2023-03-18T06:05:04.058Z,1.20
2023-03-18T06:06:04.204Z,1.40
2023-03-18T06:07:04.043Z,1.30
2023-03-18T06:08:04.081Z,1.10
2023-03-18T06:09:04.006Z,1.30
2023-03-18T06:10:04.072Z,0.90
2023-03-18T06:11:04.029Z,1.10
2023-03-18T06:12:04.092Z,1.40
2023-03-18T06:13:03.975Z,1.00
2023-03-18T06:14:04.098Z,0.90
2023-03-18T06:15:03.946Z,0.90
2023-03-18T06:16:04.134Z,1.30
2023-03-18T06:17:03.900Z,1.30
2023-03-18T06:18:03.945Z,1.40
2023-03-18T06:19:03.873Z,0.90
2023-03-18T06:20:03.948Z,1.20
2023-03-18T06:21:03.890Z,1.10
2023-03-18T06:22:03.969Z,1.30
2023-03-18T06:23:03.853Z,1.50
2023-03-18T06:24:04.124Z,1.40
2023-03-18T06:25:04.177Z,1.30
2023-03-18T06:26:03.999Z,1.80
2023-03-18T06:27:03.787Z,1.80
2023-03-18T06:28:03.905Z,1.50
2023-03-18T06:29:03.778Z,1.80
2023-03-18T06:30:03.942Z,1.40
2023-03-18T06:31:03.808Z,1.40
2023-03-18T06:32:03.984Z,1.70
2023-03-18T06:33:03.758Z,1.90
2023-03-18T06:34:03.734Z,1.60
2023-03-18T06:35:03.685Z,1.50
2023-03-18T06:36:03.842Z,1.40
2023-03-18T06:37:03.649Z,1.80
2023-03-18T06:38:03.787Z,1.50
2023-03-18T06:39:03.627Z,1.60
2023-03-18T06:40:03.711Z,1.70
2023-03-18T06:41:03.637Z,1.80
2023-03-18T06:42:03.728Z,1.30
2023-03-18T06:43:03.581Z,1.40
2023-03-18T06:44:03.711Z,1.40
2023-03-18T06:45:03.567Z,1.40
2023-03-18T06:46:03.806Z,1.70
2023-03-18T06:47:03.573Z,1.20
2023-03-18T06:48:03.641Z,1.10
2023-03-18T06:49:03.509Z,1.30
2023-03-18T06:50:03.543Z,1.10
2023-03-18T06:51:03.474Z,1.30
2023-03-18T06:52:03.732Z,1.00
2023-03-18T06:53:03.587Z,1.00
2023-03-18T06:54:03.412Z,1.10
2023-03-18T06:55:03.593Z,1.30
2023-03-18T06:56:03.390Z,1.40
2023-03-18T06:57:03.617Z,1.30
2023-03-18T06:58:03.404Z,1.50
2023-03-18T06:59:03.518Z,1.40
2023-03-18T07:00:03.344Z,1.40
2023-03-18T07:01:03.554Z,1.10
2023-03-18T07:02:03.360Z,1.20
2023-03-18T07:03:03.528Z,1.40
2023-03-18T07:04:03.415Z,1.30
2023-03-18T07:05:03.545Z,1.30
2023-03-18T07:06:03.273Z,1.50
2023-03-18T07:07:03.572Z,1.20
2023-03-18T07:08:03.269Z,1.50
2023-03-18T07:09:03.445Z,0.90
2023-03-18T07:10:03.217Z,1.20
2023-03-18T07:11:03.434Z,1.40
2023-03-18T07:12:03.207Z,1.50
2023-03-18T07:13:03.637Z,1.20
2023-03-18T07:14:03.466Z,1.60
2023-03-18T07:15:03.216Z,1.30
2023-03-18T07:16:03.242Z,1.20
2023-03-18T07:17:03.208Z,2.10
2023-03-18T07:18:03.250Z,2.30
2023-03-18T07:19:03.300Z,2.20
2023-03-18T07:20:03.142Z,1.90
2023-03-18T07:21:03.274Z,2.00
2023-03-18T07:22:03.073Z,1.80
2023-03-18T07:23:03.283Z,2.50
2023-03-18T07:24:03.070Z,5.10
2023-03-18T07:25:03.310Z,4.30
2023-03-18T07:26:03.022Z,3.90
2023-03-18T07:27:03.154Z,2.30
2023-03-18T07:28:02.993Z,1.80
2023-03-18T07:29:03.221Z,2.00
2023-03-18T07:30:03.030Z,1.70
2023-03-18T07:31:03.174Z,2.40
2023-03-18T07:32:02.941Z,2.40
2023-03-18T07:33:03.209Z,2.10
2023-03-18T07:34:02.933Z,1.70
2023-03-18T07:35:03.202Z,2.10
2023-03-18T07:36:02.928Z,2.70
2023-03-18T07:37:02.966Z,1.60
2023-03-18T07:38:02.869Z,1.30
2023-03-18T07:39:02.990Z,0.80
2023-03-18T07:40:02.966Z,1.10
2023-03-18T07:41:02.905Z,1.20
2023-03-18T07:42:02.992Z,1.60
2023-03-18T07:43:02.832Z,1.40
2023-03-18T07:44:03.022Z,1.40
2023-03-18T07:45:02.829Z,1.00
2023-03-18T07:46:03.113Z,1.00
2023-03-18T07:47:02.766Z,1.10
2023-03-18T07:48:02.834Z,1.00
2023-03-18T07:49:02.769Z,1.10
2023-03-18T07:50:02.857Z,1.20
2023-03-18T07:51:02.748Z,1.20
2023-03-18T07:52:02.920Z,1.30
2023-03-18T07:53:02.690Z,1.50
2023-03-18T07:54:02.880Z,1.20
2023-03-18T07:55:02.695Z,1.20
2023-03-18T07:56:02.879Z,1.10
2023-03-18T07:57:02.750Z,1.00
2023-03-18T07:58:02.688Z,1.20
2023-03-18T07:59:02.621Z,1.10
2023-03-18T08:00:02.699Z,0.90
2023-03-18T08:01:02.723Z,1.40
2023-03-18T08:02:02.592Z,1.10
2023-03-18T08:03:02.689Z,1.10
2023-03-18T08:04:02.592Z,1.20
2023-03-18T08:05:02.690Z,1.00
2023-03-18T08:06:02.720Z,0.90
2023-03-18T08:07:02.532Z,0.80
2023-03-18T08:08:02.543Z,0.80
2023-03-18T08:09:02.557Z,0.80
2023-03-18T08:10:02.682Z,1.00
2023-03-18T08:11:02.491Z,0.70
2023-03-18T08:12:02.593Z,1.00
2023-03-18T08:13:02.541Z,1.20
2023-03-18T08:14:02.496Z,1.00
2023-03-18T08:15:02.423Z,0.80
2023-03-18T08:16:02.588Z,0.80
2023-03-18T08:17:02.540Z,0.80
2023-03-18T08:18:02.422Z,0.80
2023-03-18T08:19:02.495Z,0.70
2023-03-18T08:20:02.380Z,0.80
2023-03-18T08:21:02.458Z,0.80
2023-03-18T08:22:02.353Z,0.80
2023-03-18T08:23:02.372Z,0.80
2023-03-18T08:24:02.402Z,0.80
2023-03-18T08:25:02.283Z,0.80
2023-03-18T08:26:02.429Z,1.00
2023-03-18T08:27:02.388Z,0.90
2023-03-18T08:28:02.262Z,0.70
2023-03-18T08:29:02.352Z,1.00
2023-03-18T08:30:03.807Z,1.10
2023-03-18T08:31:02.376Z,1.10
2023-03-18T08:32:02.191Z,1.00
2023-03-18T08:33:02.382Z,0.90
2023-03-18T08:34:02.177Z,0.90
2023-03-18T08:35:02.294Z,0.80
2023-03-18T08:36:02.174Z,1.00
2023-03-18T08:37:02.257Z,1.00
2023-03-18T08:38:02.139Z,1.00
2023-03-18T08:39:02.112Z,1.20
2023-03-18T08:40:02.177Z,0.80
2023-03-18T08:41:02.164Z,1.00
2023-03-18T08:42:02.182Z,1.20
2023-03-18T08:43:02.069Z,0.80
2023-03-18T08:44:02.104Z,1.40
2023-03-18T08:45:02.044Z,0.90
2023-03-18T08:46:02.192Z,1.10
2023-03-18T08:47:02.029Z,0.80
2023-03-18T08:48:02.011Z,0.90
2023-03-18T08:49:02.001Z,1.20
2023-03-18T08:50:02.084Z,0.70
2023-03-18T08:51:01.983Z,1.10
2023-03-18T08:52:02.183Z,0.90
2023-03-18T08:53:01.940Z,1.00
2023-03-18T08:54:02.157Z,1.00
2023-03-18T08:55:01.920Z,1.00
2023-03-18T08:56:02.989Z,1.00
2023-03-18T08:57:01.918Z,1.00
2023-03-18T08:58:02.031Z,0.90
2023-03-18T08:59:01.920Z,1.10
2023-03-18T09:00:01.904Z,0.90
2023-03-18T09:01:01.868Z,0.80
2023-03-18T09:02:02.092Z,0.70
2023-03-18T09:03:01.981Z,1.00
2023-03-18T09:04:01.885Z,0.80
2023-03-18T09:05:01.798Z,0.70
2023-03-18T09:06:01.862Z,0.90
2023-03-18T09:07:01.774Z,0.90
2023-03-18T09:08:01.888Z,0.80
2023-03-18T09:09:01.867Z,0.80
2023-03-18T09:10:01.736Z,1.00
2023-03-18T09:11:01.791Z,1.00
2023-03-18T09:12:01.749Z,1.10
2023-03-18T09:13:01.855Z,0.70
2023-03-18T09:14:01.686Z,0.90
2023-03-18T09:15:01.728Z,1.00
2023-03-18T09:16:01.649Z,0.90
2023-03-18T09:17:01.728Z,0.90
2023-03-18T09:18:11.507Z,0.90
2023-03-18T09:19:01.625Z,1.00
2023-03-18T09:20:01.759Z,1.00
2023-03-18T09:21:01.574Z,0.80
2023-03-18T09:22:01.772Z,0.60
2023-03-18T09:23:01.549Z,0.70
2023-03-18T09:24:01.629Z,0.80
2023-03-18T09:25:01.535Z,0.80
2023-03-18T09:26:01.577Z,0.60
2023-03-18T09:27:01.514Z,1.30
2023-03-18T09:28:01.661Z,0.90
2023-03-18T09:29:01.519Z,0.90
2023-03-18T09:30:01.555Z,0.80
2023-03-18T09:31:01.459Z,0.70
2023-03-18T09:32:01.566Z,1.10
2023-03-18T09:33:01.493Z,0.60
2023-03-18T09:34:01.585Z,1.00
2023-03-18T09:35:01.436Z,0.80
2023-03-18T09:36:01.462Z,0.60
2023-03-18T09:37:01.573Z,0.80
2023-03-18T09:38:01.386Z,0.70
2023-03-18T09:39:01.585Z,0.50
2023-03-18T09:40:01.392Z,0.60
2023-03-18T09:41:01.371Z,1.10
2023-03-18T09:42:01.335Z,0.60
2023-03-18T09:43:01.367Z,0.80
2023-03-18T09:44:01.324Z,0.70
2023-03-18T09:45:01.437Z,0.80
2023-03-18T09:46:01.359Z,0.70
2023-03-18T09:47:01.484Z,0.80
2023-03-18T09:48:01.244Z,0.70
2023-03-18T09:49:01.333Z,0.60
2023-03-18T09:50:01.223Z,0.80
2023-03-18T09:51:01.227Z,1.20
2023-03-18T09:52:01.232Z,0.80
2023-03-18T09:53:01.245Z,1.00
2023-03-18T09:54:01.170Z,1.00
2023-03-18T09:55:01.263Z,1.00
2023-03-18T09:56:01.229Z,1.10
2023-03-18T09:57:01.093Z,0.90
2023-03-18T09:58:01.192Z,1.20
2023-03-18T09:59:01.111Z,1.10
2023-03-18T10:00:01.202Z,1.10
2023-03-18T10:01:01.225Z,0.90
2023-03-18T10:02:01.088Z,0.80
2023-03-18T10:03:01.113Z,1.00
2023-03-18T10:04:01.205Z,0.90
2023-03-18T10:05:01.126Z,0.90
2023-03-18T10:06:01.051Z,0.90
2023-03-18T10:07:01.029Z,0.90
2023-03-18T10:08:00.986Z,0.70
2023-03-18T10:09:01.113Z,0.90
2023-03-18T10:10:00.961Z,0.80
2023-03-18T10:11:01.059Z,0.70
2023-03-18T10:12:01.061Z,0.80
2023-03-18T10:13:01.073Z,0.90
2023-03-18T10:14:00.984Z,0.90
2023-03-18T10:15:01.116Z,1.10
2023-03-18T10:16:00.901Z,0.90
2023-03-18T10:17:00.910Z,0.80
2023-03-18T10:18:00.879Z,0.90
2023-03-18T10:19:00.916Z,0.90
2023-03-18T10:20:00.876Z,0.70
2023-03-18T10:21:01.053Z,0.70
2023-03-18T10:22:00.821Z,1.00
2023-03-18T10:23:00.825Z,0.90
2023-03-18T10:24:00.844Z,0.80
2023-03-18T10:25:00.853Z,0.70
2023-03-18T10:26:00.808Z,0.60
2023-03-18T10:27:00.867Z,0.60
2023-03-18T10:28:00.760Z,0.60
2023-03-18T10:29:00.891Z,0.70
2023-03-18T10:30:00.722Z,0.60
2023-03-18T10:31:00.886Z,0.50
2023-03-18T10:32:00.696Z,0.60
2023-03-18T10:33:00.879Z,0.70
2023-03-18T10:34:00.711Z,0.60
2023-03-18T10:35:00.720Z,0.80
2023-03-18T10:36:00.678Z,0.60
2023-03-18T10:37:00.761Z,0.70
2023-03-18T10:38:00.761Z,0.70
2023-03-18T10:39:00.593Z,0.90
2023-03-18T10:40:00.677Z,0.60
2023-03-18T10:41:00.614Z,0.40
2023-03-18T10:42:00.684Z,0.70
2023-03-18T10:43:00.757Z,0.60
2023-03-18T10:44:00.569Z,0.70
2023-03-18T10:45:00.599Z,0.70
2023-03-18T10:46:00.593Z,0.70
2023-03-18T10:47:00.789Z,0.60
2023-03-18T10:48:00.609Z,0.60
2023-03-18T10:49:00.473Z,0.80
2023-03-18T10:50:00.544Z,0.70
2023-03-18T10:51:00.481Z,0.80
2023-03-18T10:52:00.661Z,0.60
2023-03-18T10:53:00.451Z,0.60
2023-03-18T10:54:00.575Z,0.50
2023-03-18T10:55:00.412Z,0.60
2023-03-18T10:56:00.571Z,0.70
2023-03-18T10:57:00.413Z,0.50
2023-03-18T10:58:00.558Z,0.60
2023-03-18T10:59:00.360Z,0.60
2023-03-18T11:00:00.508Z,0.60
2023-03-18T11:01:00.332Z,0.50
2023-03-18T11:02:00.480Z,0.60
2023-03-18T11:03:00.385Z,0.80
2023-03-18T11:04:00.504Z,0.50
2023-03-18T11:05:00.307Z,0.50
2023-03-18T11:06:01.465Z,0.80
2023-03-18T11:07:00.267Z,0.70
2023-03-18T11:08:00.366Z,0.40
2023-03-18T11:09:00.271Z,0.70
2023-03-18T11:10:00.381Z,0.60
2023-03-18T11:11:00.245Z,0.50
2023-03-18T11:12:00.279Z,0.60
2023-03-18T11:13:00.236Z,0.40
2023-03-18T11:14:00.454Z,0.50
2023-03-18T11:15:00.181Z,0.50
2023-03-18T11:16:00.357Z,0.70
2023-03-18T11:17:00.148Z,0.50
2023-03-18T11:18:00.276Z,0.40
2023-03-18T11:19:00.129Z,0.50
2023-03-18T11:20:00.244Z,0.50
2023-03-18T11:21:00.112Z,0.60
2023-03-18T11:22:00.261Z,0.40
2023-03-18T11:23:00.115Z,0.50
2023-03-18T11:24:00.215Z,0.40
2023-03-18T11:25:00.047Z,0.40
2023-03-18T11:26:00.353Z,1.20
2023-03-18T11:27:00.048Z,0.40
2023-03-18T11:28:00.192Z,0.50
2023-03-18T11:29:00.035Z,0.40
2023-03-18T11:30:00.281Z,0.50
2023-03-18T11:31:00.023Z,0.60
2023-03-18T11:32:00.217Z,0.60
2023-03-18T11:33:00.033Z,0.50
2023-03-18T11:34:00.104Z,0.50
2023-03-18T11:35:00.030Z,0.50
2023-03-18T11:36:00.026Z,0.50
2023-03-18T11:37:00.092Z,0.50
2023-03-18T11:37:59.941Z,0.40
2023-03-18T11:39:00.042Z,0.60
2023-03-18T11:40:00.182Z,0.50
2023-03-18T11:40:59.894Z,0.30
2023-03-18T11:42:00.143Z,0.40
2023-03-18T11:42:59.842Z,0.40
2023-03-18T11:43:59.954Z,0.40
2023-03-18T11:44:59.822Z,0.50
2023-03-18T11:45:59.945Z,0.50
2023-03-18T11:47:06.012Z,0.40
2023-03-18T11:47:59.996Z,0.50
2023-03-18T11:48:59.765Z,0.50
2023-03-18T11:49:59.938Z,0.40
2023-03-18T11:50:59.798Z,0.40
2023-03-18T11:51:59.945Z,0.40
2023-03-18T11:52:59.719Z,0.30
2023-03-18T11:53:59.971Z,0.40
2023-03-18T11:55:01.492Z,0.60
2023-03-18T11:55:59.776Z,0.50
2023-03-18T11:56:59.695Z,0.40
2023-03-18T11:57:59.787Z,0.60
2023-03-18T11:58:59.655Z,0.40
2023-03-18T11:59:59.901Z,0.50
2023-03-18T12:00:59.785Z,0.40
2023-03-18T12:01:59.757Z,0.90
2023-03-18T12:02:59.811Z,0.40
2023-03-18T12:03:59.656Z,0.40
2023-03-18T12:04:59.849Z,0.50
2023-03-18T12:05:59.743Z,0.40
2023-03-18T12:06:59.551Z,0.40
2023-03-18T12:07:59.673Z,0.40
2023-03-18T12:09:01.094Z,0.40
2023-03-18T12:09:59.707Z,0.50
2023-03-18T12:10:59.639Z,0.40
2023-03-18T12:11:59.523Z,0.50
2023-03-18T12:12:59.695Z,0.40
2023-03-18T12:13:59.483Z,0.50
2023-03-18T12:14:59.592Z,0.50
2023-03-18T12:15:59.516Z,0.40
2023-03-18T12:16:59.506Z,0.40
2023-03-18T12:17:59.517Z,0.30
2023-03-18T12:18:59.507Z,0.40
2023-03-18T12:19:59.413Z,0.50
2023-03-18T12:20:59.575Z,0.50
2023-03-18T12:21:59.397Z,0.40
2023-03-18T12:22:59.441Z,0.30
2023-03-18T12:23:59.361Z,0.50
2023-03-18T12:24:59.456Z,0.30
2023-03-18T12:25:59.372Z,0.40
2023-03-18T12:26:59.355Z,0.40
2023-03-18T12:27:59.312Z,0.30
2023-03-18T12:29:01.531Z,0.50
2023-03-18T12:29:59.337Z,0.50
2023-03-18T12:30:59.402Z,0.50
2023-03-18T12:31:59.500Z,0.50
2023-03-18T12:32:59.411Z,0.50
2023-03-18T12:33:59.488Z,0.80
2023-03-18T12:34:59.202Z,0.40
2023-03-18T12:35:59.362Z,0.40
2023-03-18T12:36:59.334Z,0.40
2023-03-18T12:37:59.177Z,0.50
2023-03-18T12:38:59.242Z,0.40
2023-03-18T12:39:59.196Z,0.40
2023-03-18T12:40:59.334Z,0.40
2023-03-18T12:41:59.130Z,0.50
2023-03-18T12:42:59.172Z,0.60
2023-03-18T12:43:59.107Z,0.40
2023-03-18T12:44:59.184Z,0.30
2023-03-18T12:45:59.152Z,0.50
2023-03-18T12:46:59.181Z,0.60
2023-03-18T12:47:59.059Z,0.40
2023-03-18T12:48:59.220Z,0.40
2023-03-18T12:49:59.043Z,0.40
2023-03-18T12:50:59.256Z,0.40
2023-03-18T12:51:59.042Z,0.30
2023-03-18T12:52:59.074Z,0.40
2023-03-18T12:53:58.985Z,0.40
2023-03-18T12:54:59.069Z,0.40
2023-03-18T12:55:58.964Z,0.40
2023-03-18T12:56:59.093Z,0.40
2023-03-18T12:57:58.947Z,0.50
2023-03-18T12:58:58.974Z,0.50
2023-03-18T12:59:58.901Z,0.40
2023-03-18T13:00:59.224Z,0.50
2023-03-18T13:01:58.976Z,0.50
2023-03-18T13:02:58.964Z,0.40
2023-03-18T13:03:58.879Z,0.30
2023-03-18T13:04:58.914Z,0.40
2023-03-18T13:05:58.850Z,0.50
2023-03-18T13:06:58.979Z,0.60
2023-03-18T13:07:58.830Z,0.40
2023-03-18T13:08:58.832Z,0.50
2023-03-18T13:09:59.668Z,0.50
2023-03-18T13:10:58.847Z,0.50
2023-03-18T13:11:58.755Z,0.40
2023-03-18T13:12:58.924Z,0.50
2023-03-18T13:13:58.763Z,0.40
2023-03-18T13:14:58.783Z,0.50
2023-03-18T13:15:58.697Z,0.40
2023-03-18T13:16:58.877Z,0.50
2023-03-18T13:17:58.677Z,0.40